Genco Auvergne — V7ES3 — position and weather

sailwx.info

Track history (hours):
 
Tides and Currents Weather Stations Pressure Air Temp Water Temp Dewpoint Dewpoint Depression Visibility Wind Speed Wind Dir Waves Ship Positions

Genco Auvergne

Last reported at 2014-Sep-26 22:33 UTC. Time now 2014-Sep-30 21:58 UTC.
Position S 04°13' E 112°49'.

Length 190 m; draft 13.2 m.

Type: Cargo ship. MMSI: 538002570.

Date/timePositionNaut miles runAvg speedWind from/ knotsBaromVisibWave heightAir tempDewpointWater temp
2014-Sep-26 22:33S 04°13' E 112°49'1111.0
2014-Sep-26 21:33S 04°15' E 113°00'1111.0
2014-Sep-26 20:33S 04°17' E 113°11'1111.0
2014-Sep-26 19:33S 04°19' E 113°22'1210.9
2014-Sep-26 18:28S 04°21' E 113°34'1110.7
2014-Sep-26 17:26S 04°22' E 113°44'59 8.3
2014-Sep-26 10:17S 03°42' E 114°28'0 0.2
2014-Sep-26 09:34S 03°42' E 114°27'0 0.0
2014-Sep-26 07:21S 03°42' E 114°27'0 0.0
2014-Sep-26 06:18S 03°42' E 114°27'0 0.0
2014-Sep-26 04:27S 03°42' E 114°27'0 0.0
2014-Sep-26 03:30S 03°42' E 114°27'0 0.0
2014-Sep-26 02:33S 03°42' E 114°27'0 0.1
2014-Sep-26 01:30S 03°42' E 114°27'0 0.0
2014-Sep-26 00:33S 03°42' E 114°27'0 0.0
2014-Sep-25 23:33S 03°42' E 114°27'0 0.1
2014-Sep-25 22:33S 03°42' E 114°27'0 0.0
2014-Sep-25 21:33S 03°42' E 114°27'0 0.0
2014-Sep-25 20:33S 03°42' E 114°27'0 0.0
2014-Sep-25 19:33S 03°42' E 114°27'0 0.0
2014-Sep-25 18:33S 03°42' E 114°27'0 0.0
2014-Sep-25 17:33S 03°42' E 114°27'0 0.0
2014-Sep-25 16:33S 03°42' E 114°27'0 0.0
2014-Sep-25 15:33S 03°42' E 114°27'0 0.0
2014-Sep-25 14:33S 03°42' E 114°27'0 0.0
2014-Sep-25 13:33S 03°42' E 114°27'0 0.0
2014-Sep-25 12:33S 03°42' E 114°27'0 0.0
2014-Sep-25 11:33S 03°42' E 114°27'0 0.0
2014-Sep-25 10:33S 03°42' E 114°27'  
2014-Sep-18 18:17N 01°15' E 104°04'7 9.6
2014-Sep-18 17:33N 01°15' E 103°57'2 1.6
2014-Sep-18 16:32N 01°17' E 103°57'0 0.0
2014-Sep-18 15:29N 01°17' E 103°57'0 0.0
2014-Sep-18 14:32N 01°17' E 103°57'0 0.1
2014-Sep-18 13:32N 01°17' E 103°57'0 0.1
2014-Sep-18 12:29N 01°17' E 103°57'0 0.1
2014-Sep-18 11:32N 01°17' E 103°57'0 0.0
2014-Sep-18 10:32N 01°17' E 103°57'0 0.0
2014-Sep-18 09:32N 01°17' E 103°57'0 0.0
2014-Sep-18 08:32N 01°17' E 103°57'0 0.1
2014-Sep-18 07:26N 01°17' E 103°57'0 0.0
2014-Sep-18 06:32N 01°17' E 103°57'0 0.0
2014-Sep-18 05:31N 01°17' E 103°57'1 1.0
2014-Sep-18 04:34N 01°16' E 103°57'3 3.4
2014-Sep-18 03:34N 01°13' E 103°55'5 5.1
2014-Sep-18 02:33N 01°11' E 103°51'4 3.8
2014-Sep-18 01:34N 01°09' E 103°47'5 4.7
2014-Sep-18 00:33N 01°05' E 103°44'10 9.6
2014-Sep-17 23:33N 01°05' E 103°34'1211.8
2014-Sep-17 22:33N 01°11' E 103°24'  
Track history (hours):
 
Tides and Currents Weather Stations Pressure Air Temp Water Temp Dewpoint Dewpoint Depression Visibility Wind Speed Wind Dir Waves Ship Positions

Genco Auvergne

Last reported at 2014-Sep-26 22:33 UTC. Time now 2014-Sep-30 21:58 UTC.
Position S 04°13' E 112°49'.

Length 190 m; draft 13.2 m.

Type: Cargo ship. MMSI: 538002570.

Date/timePositionNaut miles runAvg speedWind from/ knotsBaromVisibWave heightAir tempDewpointWater temp
2014-Sep-26 22:33S 04°13' E 112°49'1111.0
2014-Sep-26 21:33S 04°15' E 113°00'1111.0
2014-Sep-26 20:33S 04°17' E 113°11'1111.0
2014-Sep-26 19:33S 04°19' E 113°22'1210.9
2014-Sep-26 18:28S 04°21' E 113°34'1110.7
2014-Sep-26 17:26S 04°22' E 113°44'59 8.3
2014-Sep-26 10:17S 03°42' E 114°28'0 0.2
2014-Sep-26 09:34S 03°42' E 114°27'0 0.0
2014-Sep-26 07:21S 03°42' E 114°27'0 0.0
2014-Sep-26 06:18S 03°42' E 114°27'0 0.0
2014-Sep-26 04:27S 03°42' E 114°27'0 0.0
2014-Sep-26 03:30S 03°42' E 114°27'0 0.0
2014-Sep-26 02:33S 03°42' E 114°27'0 0.1
2014-Sep-26 01:30S 03°42' E 114°27'0 0.0
2014-Sep-26 00:33S 03°42' E 114°27'0 0.0
2014-Sep-25 23:33S 03°42' E 114°27'0 0.1
2014-Sep-25 22:33S 03°42' E 114°27'0 0.0
2014-Sep-25 21:33S 03°42' E 114°27'0 0.0
2014-Sep-25 20:33S 03°42' E 114°27'0 0.0
2014-Sep-25 19:33S 03°42' E 114°27'0 0.0
2014-Sep-25 18:33S 03°42' E 114°27'0 0.0
2014-Sep-25 17:33S 03°42' E 114°27'0 0.0
2014-Sep-25 16:33S 03°42' E 114°27'0 0.0
2014-Sep-25 15:33S 03°42' E 114°27'0 0.0
2014-Sep-25 14:33S 03°42' E 114°27'0 0.0
2014-Sep-25 13:33S 03°42' E 114°27'0 0.0
2014-Sep-25 12:33S 03°42' E 114°27'0 0.0
2014-Sep-25 11:33S 03°42' E 114°27'0 0.0
2014-Sep-25 10:33S 03°42' E 114°27'  
2014-Sep-18 18:17N 01°15' E 104°04'7 9.6
2014-Sep-18 17:33N 01°15' E 103°57'2 1.6
2014-Sep-18 16:32N 01°17' E 103°57'0 0.0
2014-Sep-18 15:29N 01°17' E 103°57'0 0.0
2014-Sep-18 14:32N 01°17' E 103°57'0 0.1
2014-Sep-18 13:32N 01°17' E 103°57'0 0.1
2014-Sep-18 12:29N 01°17' E 103°57'0 0.1
2014-Sep-18 11:32N 01°17' E 103°57'0 0.0
2014-Sep-18 10:32N 01°17' E 103°57'0 0.0
2014-Sep-18 09:32N 01°17' E 103°57'0 0.0
2014-Sep-18 08:32N 01°17' E 103°57'0 0.1
2014-Sep-18 07:26N 01°17' E 103°57'0 0.0
2014-Sep-18 06:32N 01°17' E 103°57'0 0.0
2014-Sep-18 05:31N 01°17' E 103°57'1 1.0
2014-Sep-18 04:34N 01°16' E 103°57'3 3.4
2014-Sep-18 03:34N 01°13' E 103°55'5 5.1
2014-Sep-18 02:33N 01°11' E 103°51'4 3.8
2014-Sep-18 01:34N 01°09' E 103°47'5 4.7
2014-Sep-18 00:33N 01°05' E 103°44'10 9.6
2014-Sep-17 23:33N 01°05' E 103°34'1211.8
2014-Sep-17 22:33N 01°11' E 103°24'  

Dump ship's entire track history